createdAt,value
2018-07-24T00:01:05.220Z,98151.77
2018-07-24T00:03:34.542Z,98145.45
2018-07-24T00:06:03.867Z,98144.28
2018-07-24T00:08:33.207Z,98152.13
2018-07-24T00:11:02.616Z,98151.39
2018-07-24T00:13:31.867Z,98144.49
2018-07-24T00:21:26.220Z,98152.70
2018-07-24T00:23:55.545Z,98142.25
2018-07-24T00:26:24.892Z,98149.86
2018-07-24T00:28:54.231Z,98148.27
2018-07-24T00:31:23.579Z,98141.14
2018-07-24T00:33:53.027Z,98133.61
2018-07-24T00:36:22.345Z,98141.23
2018-07-24T00:38:51.824Z,98133.30
2018-07-24T00:41:21.140Z,98127.53
2018-07-24T00:43:50.495Z,98134.64
2018-07-24T00:46:19.830Z,98129.84
2018-07-24T00:48:49.160Z,98129.39
2018-07-24T00:51:18.519Z,98126.92
2018-07-24T00:53:47.843Z,98132.36
2018-07-24T00:56:17.159Z,98126.47
2018-07-24T00:58:46.501Z,98128.97
2018-07-24T01:01:15.822Z,98134.09
2018-07-24T01:03:45.219Z,98135.03
2018-07-24T01:06:14.290Z,98129.22
2018-07-24T01:08:43.620Z,98131.00
2018-07-24T01:11:12.960Z,98126.36
2018-07-24T01:13:42.296Z,98127.05
2018-07-24T01:16:11.616Z,98125.09
2018-07-24T01:18:40.956Z,98125.55
2018-07-24T01:21:10.199Z,98123.41
2018-07-24T01:23:39.538Z,98106.21
2018-07-24T01:26:08.946Z,98121.18
2018-07-24T01:28:38.309Z,98121.57
2018-07-24T01:31:07.640Z,98117.23
2018-07-24T01:33:36.983Z,98123.41
2018-07-24T01:36:06.307Z,98121.36
2018-07-24T01:38:35.703Z,98116.75
2018-07-24T01:41:05.075Z,98117.02
2018-07-24T01:43:34.416Z,98117.17
2018-07-24T01:46:03.763Z,98115.03
2018-07-24T01:48:33.140Z,98122.22
2018-07-24T01:51:02.493Z,98117.34
2018-07-24T01:53:31.823Z,98109.88
2018-07-24T01:56:01.249Z,98115.92
2018-07-24T01:58:30.628Z,98114.86
2018-07-24T02:01:02.970Z,98115.67
2018-07-24T02:03:33.456Z,98121.70
2018-07-24T02:06:03.706Z,98114.41
2018-07-24T02:08:33.597Z,98120.48
2018-07-24T02:11:03.012Z,98114.92
2018-07-24T02:13:32.316Z,98110.95
2018-07-24T02:16:01.648Z,98114.08
2018-07-24T02:18:30.997Z,98111.44
2018-07-24T02:21:00.312Z,98109.16
2018-07-24T02:23:29.672Z,98104.52
2018-07-24T02:25:59.035Z,98109.21
2018-07-24T02:28:28.372Z,98099.39
2018-07-24T02:30:57.728Z,98099.84
2018-07-24T02:33:27.080Z,98100.34
2018-07-24T02:35:56.401Z,98090.78
2018-07-24T02:38:25.716Z,98092.84
2018-07-24T02:40:55.116Z,98085.66
2018-07-24T02:43:24.468Z,98086.90
2018-07-24T02:45:53.821Z,98088.73
2018-07-24T02:48:23.176Z,98088.34
2018-07-24T02:50:52.584Z,98085.27
2018-07-24T02:53:21.891Z,98090.10
2018-07-24T02:55:51.260Z,98090.55
2018-07-24T02:58:20.572Z,98087.63
2018-07-24T03:00:49.915Z,98088.05
2018-07-24T03:03:19.275Z,98089.03
2018-07-24T03:05:48.629Z,98085.12
2018-07-24T03:08:17.968Z,98082.98
2018-07-24T03:10:47.303Z,98082.23
2018-07-24T03:13:16.685Z,98082.47
2018-07-24T03:15:46.003Z,98084.60
2018-07-24T03:18:15.368Z,98083.76
2018-07-24T03:20:44.712Z,98079.56
2018-07-24T03:23:14.051Z,98087.48
2018-07-24T03:25:43.478Z,98089.65
2018-07-24T03:28:12.852Z,98089.30
2018-07-24T03:30:42.169Z,98087.16
2018-07-24T03:33:11.563Z,98087.16
2018-07-24T03:35:40.907Z,98088.06
2018-07-24T03:38:10.296Z,98089.41
2018-07-24T03:40:39.608Z,98093.69
2018-07-24T03:43:08.974Z,98095.87
2018-07-24T03:45:38.343Z,98093.84
2018-07-24T03:48:07.658Z,98097.45
2018-07-24T03:50:36.973Z,98094.94
2018-07-24T03:53:06.343Z,98096.78
2018-07-24T03:55:35.687Z,98094.20
2018-07-24T03:58:05.057Z,98095.48
2018-07-24T04:00:34.404Z,98096.83
2018-07-24T04:03:03.780Z,98089.23
2018-07-24T04:05:33.104Z,98092.51
2018-07-24T04:08:02.496Z,98097.20
2018-07-24T04:10:31.856Z,98092.83
2018-07-24T04:13:01.194Z,98091.52
2018-07-24T04:15:30.525Z,98099.98
2018-07-24T04:17:59.908Z,98095.95
2018-07-24T04:20:29.273Z,98104.42
2018-07-24T04:22:58.674Z,98105.16
2018-07-24T04:25:28.045Z,98102.52
2018-07-24T04:27:57.378Z,98109.36
2018-07-24T04:30:26.759Z,98107.03
2018-07-24T04:32:56.085Z,98102.55
2018-07-24T04:35:25.411Z,98107.19
2018-07-24T04:37:54.771Z,98113.60
2018-07-24T04:40:24.159Z,98114.95
2018-07-24T04:42:53.901Z,98112.97
2018-07-24T04:45:23.247Z,98108.36
2018-07-24T04:47:52.575Z,98108.11
2018-07-24T04:50:21.908Z,98108.70
2018-07-24T04:52:51.228Z,98106.79
2018-07-24T04:55:20.616Z,98103.94
2018-07-24T04:57:49.954Z,98104.04
2018-07-24T05:00:19.268Z,98107.66
2018-07-24T05:02:48.607Z,98109.16
2018-07-24T05:05:18.035Z,98109.41
2018-07-24T05:07:47.348Z,98106.98
2018-07-24T05:10:16.776Z,98105.63
2018-07-24T05:12:46.061Z,98095.74
2018-07-24T05:15:15.396Z,98098.31
2018-07-24T05:17:44.805Z,98101.78
2018-07-24T05:20:14.148Z,98101.42
2018-07-24T05:22:43.496Z,98096.81
2018-07-24T05:25:12.879Z,98100.72
2018-07-24T05:27:42.250Z,98099.41
2018-07-24T05:30:11.594Z,98099.80
2018-07-24T05:32:40.940Z,98102.86
2018-07-24T05:35:10.321Z,98100.33
2018-07-24T05:37:39.656Z,98100.33
2018-07-24T05:40:09.052Z,98101.67
2018-07-24T05:42:38.397Z,98092.22
2018-07-24T05:45:07.803Z,98098.49
2018-07-24T05:47:37.132Z,98094.55
2018-07-24T05:50:06.824Z,98097.91
2018-07-24T05:52:36.173Z,98096.16
2018-07-24T05:55:05.270Z,98096.98
2018-07-24T05:57:34.591Z,98096.80
2018-07-24T06:00:04.077Z,98094.62
2018-07-24T06:02:33.401Z,98097.20
2018-07-24T06:05:02.760Z,98095.48
2018-07-24T06:07:32.098Z,98095.72
2018-07-24T06:10:01.465Z,98098.72
2018-07-24T06:12:30.812Z,98099.77
2018-07-24T06:15:00.154Z,98092.28
2018-07-24T06:17:29.536Z,98093.21
2018-07-24T06:19:58.864Z,98090.53
2018-07-24T06:22:28.212Z,98087.51
2018-07-24T06:24:57.537Z,98092.25
2018-07-24T06:27:26.907Z,98083.96
2018-07-24T06:29:56.258Z,98087.28
2018-07-24T06:32:25.607Z,98086.98
2018-07-24T06:34:54.987Z,98082.76
2018-07-24T06:37:24.316Z,98088.29
2018-07-24T06:39:53.655Z,98086.61
2018-07-24T06:42:23.029Z,98086.66
2018-07-24T06:44:52.408Z,98082.68
2018-07-24T06:47:21.712Z,98084.55
2018-07-24T06:49:51.112Z,98081.43
2018-07-24T06:52:20.555Z,98083.52
2018-07-24T06:54:49.911Z,98081.98
2018-07-24T06:57:19.267Z,98080.34
2018-07-24T06:59:48.588Z,98079.91
2018-07-24T07:02:18.016Z,98078.02
2018-07-24T07:04:47.320Z,98079.38
2018-07-24T07:07:16.718Z,98073.53
2018-07-24T07:12:14.507Z,98073.57
2018-07-24T07:14:44.043Z,98078.97
2018-07-24T07:17:13.737Z,98078.75
2018-07-24T07:19:43.110Z,98070.14
2018-07-24T07:22:13.129Z,98066.70
2018-07-24T07:24:42.420Z,98070.70
2018-07-24T07:31:27.903Z,98069.59
2018-07-24T07:33:57.257Z,98060.09
2018-07-24T07:36:26.615Z,98063.39
2018-07-24T07:38:56.043Z,98055.17
2018-07-24T07:41:25.388Z,98056.80
2018-07-24T07:43:54.780Z,98051.83
2018-07-24T07:46:24.137Z,98046.98
2018-07-24T07:48:53.492Z,98048.86
2018-07-24T07:51:22.920Z,98046.28
2018-07-24T07:53:52.247Z,98048.13
2018-07-24T07:56:21.647Z,98043.78
2018-07-24T07:58:51.016Z,98040.64
2018-07-24T08:01:20.335Z,98038.99
2018-07-24T08:03:49.648Z,98046.16
2018-07-24T08:06:19.028Z,98039.96
2018-07-24T08:08:48.412Z,98046.27
2018-07-24T08:11:17.760Z,98045.62
2018-07-24T08:13:47.138Z,98045.89
2018-07-24T08:16:16.512Z,98044.73
2018-07-24T08:18:45.831Z,98041.75
2018-07-24T08:21:15.188Z,98044.58
2018-07-24T08:23:44.549Z,98041.58
2018-07-24T08:26:13.892Z,98040.38
2018-07-24T08:28:43.265Z,98041.14
2018-07-24T08:31:12.656Z,98035.72
2018-07-24T08:33:42.090Z,98032.48
2018-07-24T08:36:11.376Z,98033.80
2018-07-24T08:38:40.718Z,98031.20
2018-07-24T08:41:10.067Z,98031.34
2018-07-24T08:43:39.425Z,98026.72
2018-07-24T08:46:09.200Z,98029.39
2018-07-24T08:48:38.565Z,98029.45
2018-07-24T08:51:07.908Z,98020.85
2018-07-24T08:53:38.285Z,98024.46
2018-07-24T08:56:07.572Z,98025.33
2018-07-24T08:58:36.903Z,98024.95
2018-07-24T09:01:06.231Z,98023.50
2018-07-24T09:03:35.632Z,98019.45
2018-07-24T09:06:04.913Z,98020.27
2018-07-24T09:08:34.269Z,98018.85
2018-07-24T09:11:03.616Z,98020.56
2018-07-24T09:13:32.936Z,98020.91
2018-07-24T09:16:02.366Z,98022.07
2018-07-24T09:18:31.661Z,98024.20
2018-07-24T09:21:01.077Z,98018.94
2018-07-24T09:23:30.340Z,98020.91
2018-07-24T09:25:59.736Z,98012.73
2018-07-24T09:28:29.068Z,98021.64
2018-07-24T09:30:58.450Z,98018.89
2018-07-24T09:33:27.812Z,98015.77
2018-07-24T09:35:57.163Z,98014.70
2018-07-24T09:38:26.496Z,98008.16
2018-07-24T09:40:55.836Z,98008.78
2018-07-24T09:43:24.899Z,98014.98
2018-07-24T09:45:54.265Z,98007.92
2018-07-24T09:48:23.636Z,98009.22
2018-07-24T09:50:52.973Z,98011.61
2018-07-24T09:53:22.349Z,98006.78
2018-07-24T09:55:51.664Z,98010.74
2018-07-24T09:58:21.012Z,98007.03
2018-07-24T10:00:55.556Z,98004.63
2018-07-24T10:03:24.921Z,97999.98
2018-07-24T10:05:54.232Z,98007.79
2018-07-24T10:08:23.597Z,98002.52
2018-07-24T10:10:53.022Z,97997.34
2018-07-24T10:13:22.410Z,97995.98
2018-07-24T10:15:51.658Z,97985.17
2018-07-24T10:18:21.005Z,97989.66
2018-07-24T10:20:50.415Z,97986.44
2018-07-24T10:23:19.834Z,97992.36
2018-07-24T10:25:49.316Z,97979.42
2018-07-24T10:28:19.268Z,97978.73
2018-07-24T10:30:48.624Z,97974.14
2018-07-24T10:33:17.947Z,97975.72
2018-07-24T10:35:47.311Z,97981.52
2018-07-24T10:38:16.639Z,97967.73
2018-07-24T10:40:45.984Z,97969.35
2018-07-24T10:43:15.371Z,97965.05
2018-07-24T10:45:44.754Z,97960.81
2018-07-24T10:48:14.096Z,97958.70
2018-07-24T10:50:43.580Z,97963.25
2018-07-24T10:53:12.954Z,97963.09
2018-07-24T10:55:42.475Z,97957.45
2018-07-24T10:58:11.854Z,97952.72
2018-07-24T11:00:41.259Z,97948.41
2018-07-24T11:03:10.635Z,97956.55
2018-07-24T11:05:39.976Z,97951.75
2018-07-24T11:08:09.287Z,97945.27
2018-07-24T11:10:38.648Z,97952.22
2018-07-24T11:13:07.727Z,97950.69
2018-07-24T11:15:37.104Z,97946.43
2018-07-24T11:18:06.448Z,97946.27
2018-07-24T11:20:35.801Z,97941.35
2018-07-24T11:23:05.272Z,97945.37
2018-07-24T11:25:34.483Z,97938.02
2018-07-24T11:28:03.883Z,97935.86
2018-07-24T11:30:33.196Z,97938.52
2018-07-24T11:33:02.877Z,97929.47
2018-07-24T11:35:35.926Z,97934.12
2018-07-24T11:38:05.347Z,97924.92
2018-07-24T11:40:34.759Z,97925.98
2018-07-24T11:43:04.097Z,97921.05
2018-07-24T11:45:33.463Z,97918.77
2018-07-24T11:48:02.799Z,97913.63
2018-07-24T11:50:32.208Z,97914.22
2018-07-24T11:53:01.560Z,97913.27
2018-07-24T11:55:30.960Z,97909.05
2018-07-24T11:58:01.219Z,97905.91
2018-07-24T12:00:30.528Z,97902.80
2018-07-24T12:03:00.914Z,97897.63
2018-07-24T12:05:30.346Z,97899.34
2018-07-24T12:07:59.811Z,97899.13
2018-07-24T12:10:29.076Z,97894.97
2018-07-24T12:12:58.477Z,97893.59
2018-07-24T12:15:27.841Z,97891.98
2018-07-24T12:17:57.183Z,97894.77
2018-07-24T12:20:26.546Z,97884.58
2018-07-24T12:22:55.867Z,97888.77
2018-07-24T12:25:25.178Z,97891.10
2018-07-24T12:27:54.645Z,97883.88
2018-07-24T12:30:23.715Z,97876.71
2018-07-24T12:32:53.271Z,97881.38
2018-07-24T12:35:22.665Z,97879.27
2018-07-24T12:37:52.001Z,97873.84
2018-07-24T12:40:21.400Z,97873.50
2018-07-24T12:42:50.747Z,97875.72
2018-07-24T12:45:20.132Z,97868.48
2018-07-24T12:47:49.496Z,97866.02
2018-07-24T12:50:18.842Z,97872.06
2018-07-24T12:52:48.184Z,97862.73
2018-07-24T12:55:17.552Z,97861.67
2018-07-24T12:57:46.912Z,97859.54
2018-07-24T13:00:16.251Z,97863.67
2018-07-24T13:02:45.591Z,97862.89
2018-07-24T13:05:14.945Z,97858.98
2018-07-24T13:07:44.281Z,97859.50
2018-07-24T13:10:13.672Z,97858.30
2018-07-24T13:12:42.957Z,97854.77
2018-07-24T13:15:12.412Z,97851.48
2018-07-24T13:17:41.732Z,97847.02
2018-07-24T13:20:11.176Z,97848.18
2018-07-24T13:22:40.488Z,97844.17
2018-07-24T13:25:09.824Z,97849.54
2018-07-24T13:27:39.238Z,97846.69
2018-07-24T13:30:08.556Z,97846.48
2018-07-24T13:32:38.216Z,97839.78
2018-07-24T13:35:07.608Z,97839.03
2018-07-24T13:37:37.033Z,97837.97
2018-07-24T13:40:06.445Z,97832.05
2018-07-24T13:42:35.812Z,97837.07
2018-07-24T13:45:05.589Z,97829.91
2018-07-24T13:47:34.905Z,97823.20
2018-07-24T13:50:04.637Z,97830.58
2018-07-24T13:52:34.179Z,97823.34
2018-07-24T13:55:03.533Z,97829.42
2018-07-24T13:57:32.901Z,97825.34
2018-07-24T14:00:06.574Z,97827.31
2018-07-24T14:02:35.897Z,97821.27
2018-07-24T14:05:05.298Z,97818.53
2018-07-24T14:07:34.650Z,97818.33
2018-07-24T14:10:04.528Z,97820.55
2018-07-24T14:12:33.999Z,97818.16
2018-07-24T14:15:03.381Z,97814.42
2018-07-24T14:17:32.764Z,97813.39
2018-07-24T14:20:02.208Z,97814.85
2018-07-24T14:22:31.534Z,97810.59
2018-07-24T14:25:00.868Z,97816.81
2018-07-24T14:27:30.245Z,97804.44
2018-07-24T14:29:59.588Z,97812.31
2018-07-24T14:32:28.656Z,97811.77
2018-07-24T14:34:58.025Z,97803.22
2018-07-24T14:37:27.408Z,97800.23
2018-07-24T14:39:56.864Z,97795.30
2018-07-24T14:42:26.193Z,97803.82
2018-07-24T14:44:55.520Z,97797.05
2018-07-24T14:47:24.848Z,97794.44
2018-07-24T14:49:54.220Z,97797.56
2018-07-24T14:52:23.615Z,97799.61
2018-07-24T14:54:52.921Z,97792.99
2018-07-24T14:57:22.252Z,97792.33
2018-07-24T14:59:51.625Z,97788.94
2018-07-24T15:02:20.948Z,97791.13
2018-07-24T15:04:50.330Z,97790.42
2018-07-24T15:07:19.690Z,97791.45
2018-07-24T15:09:49.022Z,97790.67
2018-07-24T15:12:18.364Z,97785.30
2018-07-24T15:14:47.711Z,97788.73
2018-07-24T15:17:17.027Z,97780.76
2018-07-24T15:19:46.368Z,97778.55
2018-07-24T15:22:15.719Z,97778.14
2018-07-24T15:24:45.073Z,97772.94
2018-07-24T15:27:14.431Z,97775.55
2018-07-24T15:29:43.863Z,97778.88
2018-07-24T15:32:13.281Z,97775.48
2018-07-24T15:34:43.008Z,97772.16
2018-07-24T15:37:12.193Z,97771.27
2018-07-24T15:39:41.539Z,97770.45
2018-07-24T15:42:10.964Z,97771.58
2018-07-24T15:44:40.293Z,97771.31
2018-07-24T15:47:09.699Z,97773.08
2018-07-24T15:49:39.069Z,97770.63
2018-07-24T15:52:08.461Z,97764.44
2018-07-24T15:54:37.822Z,97760.63
2018-07-24T15:57:07.169Z,97762.58
2018-07-24T15:59:36.656Z,97758.35
2018-07-24T16:02:06.003Z,97765.38
2018-07-24T16:04:35.348Z,97758.20
2018-07-24T16:07:04.724Z,97763.08
2018-07-24T16:09:34.119Z,97765.48
2018-07-24T16:12:03.515Z,97762.47
2018-07-24T16:14:32.870Z,97767.13
2018-07-24T16:17:02.398Z,97760.19
2018-07-24T16:19:31.741Z,97766.15
2018-07-24T16:22:01.165Z,97765.66
2018-07-24T16:24:30.597Z,97762.66
2018-07-24T16:26:59.959Z,97768.55
2018-07-24T16:29:29.412Z,97768.52
2018-07-24T16:31:58.788Z,97755.87
2018-07-24T16:34:28.167Z,97753.57
2018-07-24T16:36:57.489Z,97756.56
2018-07-24T16:39:26.879Z,97758.52
2018-07-24T16:41:56.299Z,97757.87
2018-07-24T16:44:25.726Z,97759.75
2018-07-24T16:46:55.150Z,97759.31
2018-07-24T16:49:24.550Z,97753.10
2018-07-24T16:51:53.893Z,97746.58
2018-07-24T16:54:23.268Z,97749.88
2018-07-24T16:56:52.657Z,97747.95
2018-07-24T16:59:22.038Z,97738.63
2018-07-24T17:01:51.393Z,97747.23
2018-07-24T17:04:20.824Z,97743.52
2018-07-24T17:06:50.307Z,97741.66
2018-07-24T17:09:19.653Z,97741.83
2018-07-24T17:11:49.000Z,97737.96
2018-07-24T17:14:18.340Z,97739.63
2018-07-24T17:16:47.731Z,97744.52
2018-07-24T17:19:17.072Z,97750.41
2018-07-24T17:21:46.562Z,97742.43
2018-07-24T17:24:15.903Z,97745.37
2018-07-24T17:26:45.272Z,97745.66
2018-07-24T17:29:14.633Z,97741.58
2018-07-24T17:31:44.077Z,97745.37
2018-07-24T17:34:13.455Z,97739.20
2018-07-24T17:36:42.764Z,97739.86
2018-07-24T17:39:12.161Z,97739.67
2018-07-24T17:41:41.564Z,97738.84
2018-07-24T17:44:10.912Z,97742.16
2018-07-24T17:46:40.232Z,97740.70
2018-07-24T17:49:09.649Z,97744.87
2018-07-24T17:51:39.068Z,97750.77
2018-07-24T17:54:08.492Z,97748.71
2018-07-24T17:56:37.839Z,97746.59
2018-07-24T17:59:07.189Z,97750.86
2018-07-24T18:01:36.521Z,97748.80
2018-07-24T18:04:05.912Z,97749.50
2018-07-24T18:06:35.288Z,97747.45
2018-07-24T18:09:07.040Z,97750.48
2018-07-24T18:11:36.451Z,97750.05
2018-07-24T18:14:05.843Z,97750.16
2018-07-24T18:16:35.215Z,97747.50
2018-07-24T18:19:04.596Z,97756.94
2018-07-24T18:21:33.944Z,97750.19
2018-07-24T18:24:04.078Z,97752.02
2018-07-24T18:26:33.477Z,97753.16
2018-07-24T18:31:31.898Z,97750.64
2018-07-24T18:34:01.301Z,97749.80
2018-07-24T18:36:30.773Z,97752.45
2018-07-24T18:39:00.174Z,97753.50
2018-07-24T18:41:29.531Z,97751.66
2018-07-24T18:43:58.859Z,97751.83
2018-07-24T18:46:28.260Z,97752.78
2018-07-24T18:48:57.579Z,97751.67
2018-07-24T18:51:26.955Z,97747.31
2018-07-24T18:53:56.305Z,97754.92
2018-07-24T18:56:25.628Z,97755.14
2018-07-24T18:58:55.011Z,97755.14
2018-07-24T19:01:24.305Z,97754.55
2018-07-24T19:03:53.652Z,97758.19
2018-07-24T19:06:22.980Z,97755.84
2018-07-24T19:08:52.330Z,97758.28
2018-07-24T19:11:21.689Z,97754.01
2018-07-24T19:13:51.062Z,97754.81
2018-07-24T19:16:20.560Z,97758.71
2018-07-24T19:18:49.900Z,97760.30
2018-07-24T19:21:20.302Z,97757.31
2018-07-24T19:23:49.694Z,97759.34
2018-07-24T19:26:19.108Z,97762.94
2018-07-24T19:28:48.457Z,97758.63
2018-07-24T19:31:18.915Z,97763.38
2018-07-24T19:33:48.260Z,97767.30
2018-07-24T19:36:17.828Z,97764.48
2018-07-24T19:38:47.244Z,97766.80
2018-07-24T19:41:16.601Z,97765.92
2018-07-24T19:43:46.031Z,97770.84
2018-07-24T19:46:15.335Z,97775.52
2018-07-24T19:48:44.924Z,97776.60
2018-07-24T19:51:14.399Z,97782.01
2018-07-24T19:53:43.783Z,97779.12
2018-07-24T19:56:13.241Z,97781.94
2018-07-24T19:58:42.564Z,97779.40
2018-07-24T20:01:12.037Z,97783.94
2018-07-24T20:03:41.496Z,97786.41
2018-07-24T20:06:10.868Z,97778.13
2018-07-24T20:08:40.373Z,97788.45
2018-07-24T20:11:09.799Z,97788.27
2018-07-24T20:13:39.253Z,97787.17
2018-07-24T20:16:08.654Z,97792.20
2018-07-24T20:18:38.175Z,97793.69
2018-07-24T20:21:08.115Z,97798.05
2018-07-24T20:23:37.786Z,97793.88
2018-07-24T20:26:07.109Z,97799.45
2018-07-24T20:28:36.877Z,97797.83
2018-07-24T20:31:06.204Z,97796.13
2018-07-24T20:33:35.802Z,97803.94
2018-07-24T20:36:05.291Z,97811.30
2018-07-24T20:38:34.739Z,97816.34
2018-07-24T20:41:04.460Z,97815.47
2018-07-24T20:43:33.983Z,97818.41
2018-07-24T20:46:04.184Z,97821.51
2018-07-24T20:48:34.576Z,97822.09
2018-07-24T20:51:05.198Z,97821.27
2018-07-24T20:53:35.930Z,97818.05
2018-07-24T20:56:05.705Z,97816.31
2018-07-24T20:58:35.277Z,97813.64
2018-07-24T21:01:04.809Z,97815.44
2018-07-24T21:03:34.259Z,97815.08
2018-07-24T21:06:03.605Z,97813.16
2018-07-24T21:08:32.923Z,97824.64
2018-07-24T21:11:02.257Z,97818.44
2018-07-24T21:13:31.651Z,97819.39
2018-07-24T21:16:01.002Z,97817.64
2018-07-24T21:18:30.347Z,97820.77
2018-07-24T21:20:59.769Z,97816.74
2018-07-24T21:23:29.188Z,97814.71
2018-07-24T21:25:58.988Z,97820.48
2018-07-24T21:28:28.377Z,97819.52
2018-07-24T21:30:57.442Z,97814.09
2018-07-24T21:33:26.784Z,97820.91
2018-07-24T21:35:56.186Z,97815.90
2018-07-24T21:38:25.503Z,97821.13
2018-07-24T21:40:54.864Z,97824.45
2018-07-24T21:43:24.208Z,97823.80
2018-07-24T21:45:53.606Z,97826.23
2018-07-24T21:48:22.981Z,97821.84
2018-07-24T21:50:52.294Z,97829.50
2018-07-24T21:53:21.654Z,97841.91
2018-07-24T21:55:50.976Z,97847.23
2018-07-24T21:58:20.345Z,97849.06
2018-07-24T22:00:55.030Z,97845.01
2018-07-24T22:03:24.383Z,97845.75
2018-07-24T22:05:53.796Z,97843.78
2018-07-24T22:08:23.128Z,97841.62
2018-07-24T22:10:52.473Z,97839.69
2018-07-24T22:13:21.808Z,97847.48
2018-07-24T22:15:51.146Z,97841.61
2018-07-24T22:18:20.505Z,97846.83
2018-07-24T22:20:49.856Z,97847.03
2018-07-24T22:23:19.258Z,97844.91
2018-07-24T22:25:48.548Z,97847.48
2018-07-24T22:28:17.866Z,97850.28
2018-07-24T22:30:47.205Z,97849.47
2018-07-24T22:33:16.524Z,97852.44
2018-07-24T22:35:45.933Z,97855.69
2018-07-24T22:38:15.272Z,97859.05
2018-07-24T22:40:44.627Z,97852.89
2018-07-24T22:43:13.952Z,97857.48
2018-07-24T22:45:43.285Z,97851.59
2018-07-24T22:48:12.676Z,97857.18
2018-07-24T22:50:42.050Z,97856.38
2018-07-24T22:53:11.405Z,97856.56
2018-07-24T22:55:40.771Z,97857.96
2018-07-24T22:58:10.119Z,97854.67
2018-07-24T23:00:39.455Z,97856.02
2018-07-24T23:03:08.841Z,97850.66
2018-07-24T23:05:38.347Z,97849.29
2018-07-24T23:08:07.686Z,97849.50
2018-07-24T23:10:37.033Z,97851.06
2018-07-24T23:13:06.387Z,97853.89
2018-07-24T23:15:35.808Z,97855.66
2018-07-24T23:18:05.268Z,97856.80
2018-07-24T23:20:34.620Z,97860.95
2018-07-24T23:23:03.981Z,97860.11
2018-07-24T23:25:33.332Z,97860.11
2018-07-24T23:28:02.674Z,97855.20
2018-07-24T23:30:32.065Z,97852.75
2018-07-24T23:33:01.447Z,97853.77
2018-07-24T23:35:30.896Z,97849.09
2018-07-24T23:38:00.304Z,97857.55
2018-07-24T23:40:29.617Z,97858.70
2018-07-24T23:42:58.994Z,97854.33
2018-07-24T23:45:28.383Z,97854.39
2018-07-24T23:47:57.720Z,97854.09
2018-07-24T23:50:27.039Z,97855.70
2018-07-24T23:52:56.383Z,97855.31
2018-07-24T23:55:25.704Z,97855.07
2018-07-24T23:57:55.032Z,97857.30
